createdAt,value
2018-05-16T00:00:34.890Z,12.30
2018-05-16T00:03:02.411Z,12.97
2018-05-16T00:05:29.914Z,14.10
2018-05-16T00:07:57.440Z,14.17
2018-05-16T00:10:24.950Z,13.63
2018-05-16T00:12:52.459Z,13.83
2018-05-16T00:15:19.981Z,14.63
2018-05-16T00:17:48.465Z,13.40
2018-05-16T00:20:16.813Z,13.80
2018-05-16T00:22:44.282Z,15.07
2018-05-16T00:25:11.794Z,15.40
2018-05-16T00:27:39.313Z,14.60
2018-05-16T00:30:06.814Z,14.00
2018-05-16T00:32:34.339Z,13.73
2018-05-16T00:35:02.609Z,13.40
2018-05-16T00:37:30.839Z,14.00
2018-05-16T00:39:58.362Z,13.70
2018-05-16T00:42:25.870Z,14.83
2018-05-16T00:44:53.378Z,12.37
2018-05-16T00:47:22.542Z,11.93
2018-05-16T00:49:50.071Z,10.67
2018-05-16T00:52:18.333Z,9.90
2018-05-16T00:54:45.838Z,9.73
2018-05-16T00:57:13.359Z,9.10
2018-05-16T00:59:40.849Z,9.00
2018-05-16T01:02:08.368Z,8.20
2018-05-16T01:04:35.873Z,8.57
2018-05-16T01:07:03.382Z,8.63
2018-05-16T01:09:30.906Z,8.80
2018-05-16T01:11:58.407Z,9.07
2018-05-16T01:14:26.698Z,8.43
2018-05-16T01:16:54.206Z,8.40
2018-05-16T01:19:21.775Z,7.93
2018-05-16T01:21:50.041Z,9.17
2018-05-16T01:24:17.544Z,8.90
2018-05-16T01:26:45.078Z,8.70
2018-05-16T01:29:13.366Z,8.93
2018-05-16T01:31:41.663Z,8.60
2018-05-16T01:34:09.165Z,8.97
2018-05-16T01:36:36.690Z,8.60
2018-05-16T01:39:04.193Z,8.63
2018-05-16T01:41:31.693Z,9.60
2018-05-16T01:43:59.223Z,9.00
2018-05-16T01:46:26.731Z,9.00
2018-05-16T01:49:06.095Z,8.10
2018-05-16T01:51:33.606Z,8.53
2018-05-16T01:54:01.133Z,9.43
2018-05-16T01:56:28.633Z,8.47
2018-05-16T01:58:56.139Z,9.40
2018-05-16T02:01:23.654Z,8.82
2018-05-16T02:03:51.373Z,8.53
2018-05-16T02:06:18.906Z,7.73
2018-05-16T02:08:46.410Z,7.73
2018-05-16T02:11:14.674Z,9.10
2018-05-16T02:13:42.194Z,8.60
2018-05-16T02:16:09.702Z,8.10
2018-05-16T02:18:37.986Z,8.50
2018-05-16T02:21:06.254Z,8.90
2018-05-16T02:23:34.545Z,8.10
2018-05-16T02:26:02.810Z,8.83
2018-05-16T02:28:31.082Z,8.60
2018-05-16T02:30:58.601Z,8.87
2018-05-16T02:33:26.319Z,8.47
2018-05-16T02:35:53.853Z,8.73
2018-05-16T02:38:21.374Z,9.90
2018-05-16T02:40:48.879Z,9.00
2018-05-16T02:43:16.402Z,9.30
2018-05-16T02:45:43.913Z,8.30
2018-05-16T02:48:12.193Z,10.00
2018-05-16T02:50:40.475Z,8.70
2018-05-16T02:53:08.779Z,9.60
2018-05-16T02:55:36.285Z,10.50
2018-05-16T02:58:03.781Z,11.23
2018-05-16T03:00:31.545Z,10.37
2018-05-16T03:02:59.053Z,11.60
2018-05-16T03:05:26.588Z,10.57
2018-05-16T03:07:54.113Z,11.77
2018-05-16T03:10:21.626Z,12.83
2018-05-16T03:12:49.150Z,10.67
2018-05-16T03:15:16.662Z,11.10
2018-05-16T03:17:44.194Z,12.57
2018-05-16T03:20:11.696Z,10.97
2018-05-16T03:22:39.186Z,10.60
2018-05-16T03:25:06.705Z,11.27
2018-05-16T03:27:34.221Z,11.50
2018-05-16T03:30:01.751Z,11.57
2018-05-16T03:32:29.258Z,12.53
2018-05-16T03:34:56.761Z,12.10
2018-05-16T03:37:25.042Z,10.90
2018-05-16T03:39:53.310Z,12.90
2018-05-16T03:42:21.593Z,11.97
2018-05-16T03:44:49.098Z,12.10
2018-05-16T03:47:16.595Z,11.97
2018-05-16T03:49:44.118Z,12.53
2018-05-16T03:52:11.609Z,12.83
2018-05-16T03:54:39.126Z,11.97
2018-05-16T04:00:20.101Z,13.67
2018-05-16T04:02:59.256Z,13.30
2018-05-16T04:05:26.792Z,12.50
2018-05-16T04:07:55.053Z,14.23
2018-05-16T04:10:22.550Z,13.83
2018-05-16T04:12:50.069Z,13.60
2018-05-16T04:15:18.325Z,13.53
2018-05-16T04:17:45.837Z,14.60
2018-05-16T04:20:13.430Z,13.20
2018-05-16T04:22:40.923Z,14.17
2018-05-16T04:25:09.455Z,16.63
2018-05-16T04:27:36.968Z,15.40
2018-05-16T04:30:04.477Z,14.77
2018-05-16T04:32:31.996Z,16.57
2018-05-16T04:35:00.302Z,17.17
2018-05-16T04:37:27.809Z,16.50
2018-05-16T04:39:55.315Z,17.43
2018-05-16T04:42:22.828Z,17.43
2018-05-16T04:44:50.325Z,17.13
2018-05-16T04:47:17.860Z,19.47
2018-05-16T04:49:46.177Z,20.47
2018-05-16T04:52:13.702Z,17.47
2018-05-16T04:54:41.238Z,18.70
2018-05-16T04:57:08.756Z,18.33
2018-05-16T04:59:36.289Z,18.80
2018-05-16T05:02:04.573Z,17.73
2018-05-16T05:04:32.880Z,16.73
2018-05-16T05:07:00.377Z,15.30
2018-05-16T05:09:27.870Z,16.10
2018-05-16T05:11:56.150Z,16.00
2018-05-16T05:14:24.413Z,15.77
2018-05-16T05:16:52.705Z,14.87
2018-05-16T05:19:21.005Z,16.20
2018-05-16T05:21:48.527Z,15.17
2018-05-16T05:24:16.798Z,14.60
2018-05-16T05:26:45.071Z,16.27
2018-05-16T05:29:12.600Z,17.50
2018-05-16T05:31:40.097Z,16.00
2018-05-16T05:34:08.377Z,15.40
2018-05-16T05:36:36.653Z,15.03
2018-05-16T05:39:05.649Z,16.73
2018-05-16T05:41:33.930Z,15.40
2018-05-16T05:44:01.441Z,14.50
2018-05-16T05:46:28.970Z,15.93
2018-05-16T05:48:56.482Z,14.90
2018-05-16T05:51:24.002Z,8.87
2018-05-16T05:53:51.505Z,10.60
2018-05-16T05:56:19.026Z,10.27
2018-05-16T05:58:46.538Z,9.97
2018-05-16T06:01:14.815Z,9.10
2018-05-16T06:03:42.342Z,8.30
2018-05-16T06:06:09.854Z,8.60
2018-05-16T06:08:38.151Z,9.70
2018-05-16T06:11:05.656Z,8.33
2018-05-16T06:13:33.149Z,7.90
2018-05-16T06:16:01.438Z,8.10
2018-05-16T06:18:28.972Z,7.70
2018-05-16T06:20:57.269Z,7.57
2018-05-16T06:23:24.796Z,8.07
2018-05-16T06:25:52.325Z,7.13
2018-05-16T06:28:19.842Z,7.17
2018-05-16T06:30:47.366Z,7.40
2018-05-16T06:33:14.887Z,7.30
2018-05-16T06:35:43.251Z,6.60
2018-05-16T06:38:10.860Z,6.30
2018-05-16T06:40:38.353Z,6.20
2018-05-16T06:43:06.642Z,7.20
2018-05-16T06:45:34.964Z,6.63
2018-05-16T06:48:02.478Z,6.83
2018-05-16T06:50:30.768Z,6.10
2018-05-16T06:52:58.275Z,7.83
2018-05-16T06:55:25.795Z,7.23
2018-05-16T06:57:53.299Z,6.07
2018-05-16T07:00:20.807Z,6.33
2018-05-16T07:02:49.104Z,5.77
2018-05-16T07:05:17.299Z,6.73
2018-05-16T07:07:44.910Z,7.47
2018-05-16T07:10:13.170Z,5.90
2018-05-16T07:12:41.514Z,5.90
2018-05-16T07:15:09.015Z,6.40
2018-05-16T07:17:37.287Z,6.37
2018-05-16T07:20:05.582Z,5.63
2018-05-16T07:22:33.115Z,6.03
2018-05-16T07:25:00.637Z,6.77
2018-05-16T07:27:28.146Z,7.30
2018-05-16T07:29:56.902Z,6.70
2018-05-16T07:32:24.425Z,7.60
2018-05-16T07:34:51.940Z,6.60
2018-05-16T07:37:19.441Z,5.37
2018-05-16T07:39:47.773Z,7.30
2018-05-16T07:42:16.083Z,6.80
2018-05-16T07:44:43.615Z,7.30
2018-05-16T07:47:11.136Z,7.20
2018-05-16T07:49:38.630Z,7.43
2018-05-16T07:52:06.151Z,6.43
2018-05-16T07:54:33.659Z,6.43
2018-05-16T07:57:01.178Z,6.27
2018-05-16T07:59:28.693Z,6.20
2018-05-16T08:01:56.986Z,6.27
2018-05-16T08:04:24.486Z,6.00
2018-05-16T08:06:51.993Z,5.57
2018-05-16T08:09:20.283Z,6.73
2018-05-16T08:11:47.777Z,6.63
2018-05-16T08:14:15.322Z,7.57
2018-05-16T08:16:42.825Z,6.00
2018-05-16T08:19:10.325Z,6.30
2018-05-16T08:21:37.880Z,6.10
2018-05-16T08:24:06.118Z,6.90
2018-05-16T08:26:34.432Z,7.50
2018-05-16T08:29:01.970Z,7.33
2018-05-16T08:31:30.251Z,6.53
2018-05-16T08:33:57.751Z,8.10
2018-05-16T08:36:25.255Z,6.90
2018-05-16T08:38:52.782Z,5.97
2018-05-16T08:41:20.277Z,7.07
2018-05-16T08:43:47.802Z,6.33
2018-05-16T08:46:15.306Z,5.93
2018-05-16T08:48:43.594Z,5.80
2018-05-16T08:51:11.103Z,6.20
2018-05-16T08:53:38.636Z,5.93
2018-05-16T08:56:06.143Z,5.83
2018-05-16T08:58:33.641Z,6.40
2018-05-16T09:01:01.171Z,5.93
2018-05-16T09:03:28.680Z,6.20
2018-05-16T09:05:56.223Z,5.53
2018-05-16T09:08:23.945Z,6.20
2018-05-16T09:10:51.502Z,6.70
2018-05-16T09:13:19.012Z,5.23
2018-05-16T09:15:46.518Z,5.10
2018-05-16T09:18:14.094Z,6.40
2018-05-16T09:20:41.546Z,6.73
2018-05-16T09:23:09.074Z,7.10
2018-05-16T09:25:36.597Z,7.07
2018-05-16T09:28:04.887Z,8.03
2018-05-16T09:30:32.393Z,6.10
2018-05-16T09:32:59.910Z,7.27
2018-05-16T09:35:27.441Z,7.17
2018-05-16T09:37:55.720Z,8.33
2018-05-16T09:40:24.114Z,7.53
2018-05-16T09:42:51.554Z,9.23
2018-05-16T09:45:19.852Z,9.10
2018-05-16T09:47:47.363Z,8.63
2018-05-16T09:50:14.887Z,8.17
2018-05-16T09:52:42.385Z,7.70
2018-05-16T09:55:09.910Z,7.57
2018-05-16T09:57:37.419Z,7.70
2018-05-16T10:00:04.938Z,6.93
2018-05-16T10:02:32.511Z,8.17
2018-05-16T10:05:00.029Z,9.53
2018-05-16T10:07:27.555Z,8.07
2018-05-16T10:09:55.887Z,8.77
2018-05-16T10:12:23.390Z,7.63
2018-05-16T10:14:50.890Z,8.93
2018-05-16T10:17:18.395Z,9.90
2018-05-16T10:19:45.925Z,8.10
2018-05-16T10:22:13.430Z,9.20
2018-05-16T10:24:41.040Z,8.53
2018-05-16T10:27:08.546Z,8.70
2018-05-16T10:29:36.085Z,8.03
2018-05-16T10:32:03.586Z,8.57
2018-05-16T10:34:31.868Z,9.40
2018-05-16T10:37:00.171Z,9.27
2018-05-16T10:39:27.671Z,9.20
2018-05-16T10:41:55.207Z,9.20
2018-05-16T10:44:22.739Z,8.13
2018-05-16T10:46:50.257Z,9.60
2018-05-16T10:49:17.777Z,10.23
2018-05-16T10:51:45.418Z,8.60
2018-05-16T10:54:12.936Z,8.30
2018-05-16T10:56:40.433Z,9.00
2018-05-16T10:59:08.722Z,7.77
2018-05-16T11:01:36.233Z,7.80
2018-05-16T11:04:03.818Z,8.67
2018-05-16T11:06:31.278Z,8.17
2018-05-16T11:08:59.550Z,7.70
2018-05-16T11:11:27.071Z,8.17
2018-05-16T11:13:54.592Z,8.13
2018-05-16T11:16:22.127Z,7.60
2018-05-16T11:18:50.401Z,8.10
2018-05-16T11:21:18.695Z,7.63
2018-05-16T11:23:46.204Z,7.33
2018-05-16T11:26:13.719Z,8.43
2018-05-16T11:28:41.237Z,7.57
2018-05-16T11:31:08.727Z,7.50
2018-05-16T11:33:37.021Z,8.37
2018-05-16T11:36:05.333Z,9.00
2018-05-16T11:38:32.863Z,9.40
2018-05-16T11:41:00.411Z,9.27
2018-05-16T11:43:27.958Z,9.97
2018-05-16T11:45:56.235Z,8.60
2018-05-16T11:48:25.055Z,9.70
2018-05-16T11:50:52.582Z,9.30
2018-05-16T11:53:20.085Z,8.80
2018-05-16T11:55:47.606Z,8.60
2018-05-16T11:58:15.885Z,7.20
2018-05-16T12:00:43.420Z,6.83
2018-05-16T12:03:10.931Z,6.23
2018-05-16T12:05:38.437Z,6.30
2018-05-16T12:08:05.968Z,5.70
2018-05-16T12:10:33.470Z,4.93
2018-05-16T12:13:00.986Z,4.10
2018-05-16T12:15:28.503Z,4.77
2018-05-16T12:17:56.789Z,5.10
2018-05-16T12:20:25.046Z,4.80
2018-05-16T12:22:52.582Z,6.20
2018-05-16T12:25:20.083Z,5.67
2018-05-16T12:27:48.347Z,5.40
2018-05-16T12:30:15.866Z,5.90
2018-05-16T12:32:43.362Z,6.20
2018-05-16T12:35:10.868Z,5.03
2018-05-16T12:37:38.377Z,5.30
2018-05-16T12:40:05.903Z,5.83
2018-05-16T12:42:33.405Z,5.57
2018-05-16T12:45:00.898Z,5.50
2018-05-16T12:47:28.413Z,5.00
2018-05-16T12:49:55.927Z,4.53
2018-05-16T12:52:23.772Z,5.30
2018-05-16T12:54:51.271Z,5.50
2018-05-16T12:57:18.791Z,5.20
2018-05-16T12:59:47.054Z,5.90
2018-05-16T13:02:15.339Z,6.27
2018-05-16T13:04:43.605Z,5.17
2018-05-16T13:07:11.875Z,4.50
2018-05-16T13:09:39.395Z,4.50
2018-05-16T13:12:06.907Z,5.40
2018-05-16T13:14:35.198Z,5.10
2018-05-16T13:17:02.696Z,5.63
2018-05-16T13:19:30.214Z,5.73
2018-05-16T13:21:57.727Z,5.73
2018-05-16T13:24:25.861Z,5.83
2018-05-16T13:26:53.421Z,6.37
2018-05-16T13:29:21.654Z,6.17
2018-05-16T13:31:49.172Z,6.30
2018-05-16T13:34:16.674Z,7.00
2018-05-16T13:36:44.199Z,6.07
2018-05-16T13:39:11.705Z,5.67
2018-05-16T13:41:39.994Z,5.43
2018-05-16T13:44:08.253Z,5.60
2018-05-16T13:46:35.751Z,7.23
2018-05-16T13:49:03.283Z,5.77
2018-05-16T13:51:31.559Z,4.73
2018-05-16T13:53:59.850Z,2.93
2018-05-16T13:56:27.407Z,2.80
2018-05-16T13:58:55.695Z,3.53
2018-05-16T14:01:23.194Z,3.57
2018-05-16T14:03:50.711Z,4.23
2018-05-16T14:06:18.206Z,3.80
2018-05-16T14:08:45.709Z,3.40
2018-05-16T14:11:13.999Z,3.20
2018-05-16T14:13:42.274Z,2.60
2018-05-16T14:16:10.563Z,3.43
2018-05-16T14:18:38.071Z,3.53
2018-05-16T14:21:05.598Z,4.03
2018-05-16T14:23:33.111Z,3.90
2018-05-16T14:26:00.617Z,3.90
2018-05-16T14:28:28.134Z,3.93
2018-05-16T14:30:55.635Z,3.87
2018-05-16T14:33:23.157Z,3.57
2018-05-16T14:35:51.431Z,3.47
2018-05-16T14:38:18.955Z,3.63
2018-05-16T14:40:46.447Z,3.50
2018-05-16T14:43:13.971Z,3.80
2018-05-16T14:45:41.470Z,4.30
2018-05-16T14:48:09.746Z,4.17
2018-05-16T14:50:37.271Z,4.73
2018-05-16T14:53:04.763Z,4.37
2018-05-16T14:55:33.078Z,3.93
2018-05-16T14:58:00.578Z,3.47
2018-05-16T15:00:28.123Z,3.40
2018-05-16T15:02:55.632Z,3.90
2018-05-16T15:05:23.926Z,4.10
2018-05-16T15:07:51.432Z,4.57
2018-05-16T15:10:18.978Z,4.70
2018-05-16T15:12:46.502Z,4.87
2018-05-16T15:15:14.018Z,4.40
2018-05-16T15:17:41.534Z,4.77
2018-05-16T15:20:09.032Z,3.80
2018-05-16T15:22:36.568Z,3.77
2018-05-16T15:25:04.074Z,5.00
2018-05-16T15:27:31.579Z,5.03
2018-05-16T15:29:59.155Z,5.40
2018-05-16T15:32:26.654Z,4.60
2018-05-16T15:34:54.183Z,5.97
2018-05-16T15:37:21.688Z,5.90
2018-05-16T15:39:49.222Z,5.83
2018-05-16T15:42:16.727Z,6.37
2018-05-16T15:44:44.231Z,6.90
2018-05-16T15:47:11.748Z,6.10
2018-05-16T15:49:39.254Z,7.17
2018-05-16T15:52:06.767Z,5.53
2018-05-16T15:54:34.266Z,6.37
2018-05-16T15:57:02.502Z,5.97
2018-05-16T15:59:30.007Z,4.90
2018-05-16T16:01:57.530Z,4.53
2018-05-16T16:04:25.075Z,4.47
2018-05-16T16:06:52.964Z,4.60
2018-05-16T16:09:20.483Z,5.77
2018-05-16T16:11:48.741Z,5.83
2018-05-16T16:14:17.053Z,4.73
2018-05-16T16:16:44.563Z,5.53
2018-05-16T16:19:12.076Z,5.60
2018-05-16T16:21:39.583Z,4.77
2018-05-16T16:24:07.099Z,5.50
2018-05-16T16:26:34.612Z,5.03
2018-05-16T16:29:02.109Z,4.30
2018-05-16T16:31:29.689Z,5.20
2018-05-16T16:33:57.186Z,4.60
2018-05-16T16:36:24.710Z,4.07
2018-05-16T16:38:52.296Z,4.67
2018-05-16T16:41:19.733Z,5.17
2018-05-16T16:43:47.241Z,4.80
2018-05-16T16:46:15.506Z,4.20
2018-05-16T16:48:43.058Z,4.60
2018-05-16T16:51:10.555Z,4.40
2018-05-16T16:53:38.840Z,4.80
2018-05-16T16:56:06.351Z,5.17
2018-05-16T16:58:33.886Z,4.67
2018-05-16T17:01:01.390Z,5.13
2018-05-16T17:03:28.915Z,4.97
2018-05-16T17:05:56.426Z,5.67
2018-05-16T17:08:24.696Z,4.33
2018-05-16T17:10:52.991Z,4.77
2018-05-16T17:13:20.488Z,5.73
2018-05-16T17:15:48.003Z,5.47
2018-05-16T17:18:16.266Z,4.70
2018-05-16T17:20:44.375Z,5.00
2018-05-16T17:23:12.737Z,5.17
2018-05-16T17:25:41.004Z,5.67
2018-05-16T17:28:09.308Z,5.57
2018-05-16T17:30:36.830Z,5.30
2018-05-16T17:33:05.124Z,6.80
2018-05-16T17:35:33.397Z,5.70
2018-05-16T17:38:01.697Z,6.40
2018-05-16T17:40:29.192Z,6.13
2018-05-16T17:42:56.704Z,7.03
2018-05-16T17:45:24.208Z,6.63
2018-05-16T17:47:51.726Z,5.80
2018-05-16T17:50:19.230Z,7.67
2018-05-16T17:52:46.747Z,7.47
2018-05-16T17:55:14.265Z,6.40
2018-05-16T17:57:41.768Z,5.90
2018-05-16T18:00:09.291Z,6.80
2018-05-16T18:02:36.798Z,7.27
2018-05-16T18:05:04.328Z,6.90
2018-05-16T18:07:32.632Z,6.67
2018-05-16T18:10:00.159Z,7.10
2018-05-16T18:12:27.650Z,8.37
2018-05-16T18:17:57.673Z,5.70
2018-05-16T18:20:25.956Z,6.63
2018-05-16T18:22:53.453Z,6.10
2018-05-16T18:25:20.984Z,5.83
2018-05-16T18:27:48.490Z,7.13
2018-05-16T18:30:15.998Z,6.70
2018-05-16T18:32:43.517Z,6.70
2018-05-16T18:35:11.024Z,7.10
2018-05-16T18:37:38.550Z,6.30
2018-05-16T18:40:06.816Z,6.47
2018-05-16T18:42:34.448Z,6.63
2018-05-16T18:45:01.851Z,7.17
2018-05-16T18:47:30.735Z,5.97
2018-05-16T18:49:58.263Z,6.47
2018-05-16T18:52:25.783Z,7.73
2018-05-16T18:54:53.294Z,6.30
2018-05-16T18:57:20.801Z,6.60
2018-05-16T18:59:48.304Z,6.83
2018-05-16T19:02:15.826Z,6.30
2018-05-16T19:04:43.330Z,6.67
2018-05-16T19:07:10.875Z,6.90
2018-05-16T19:09:38.371Z,5.87
2018-05-16T19:12:05.891Z,5.10
2018-05-16T19:14:33.493Z,6.10
2018-05-16T19:17:01.689Z,5.73
2018-05-16T19:19:29.211Z,6.57
2018-05-16T19:21:56.737Z,6.50
2018-05-16T19:24:25.018Z,5.97
2018-05-16T19:26:52.514Z,5.70
2018-05-16T19:29:20.103Z,6.30
2018-05-16T19:31:47.606Z,6.28
2018-05-16T19:34:15.198Z,6.23
2018-05-16T19:36:42.697Z,6.57
2018-05-16T19:39:10.218Z,6.00
2018-05-16T19:41:38.048Z,6.07
2018-05-16T19:44:05.541Z,6.00
2018-05-16T19:46:33.080Z,5.77
2018-05-16T19:49:00.599Z,6.70
2018-05-16T19:51:28.135Z,5.70
2018-05-16T19:53:56.406Z,6.13
2018-05-16T19:56:23.912Z,6.33
2018-05-16T19:58:52.158Z,6.20
2018-05-16T20:01:19.696Z,6.40
2018-05-16T20:03:47.220Z,5.73
2018-05-16T20:06:14.732Z,5.43
2018-05-16T20:08:43.027Z,5.70
2018-05-16T20:11:10.544Z,5.40
2018-05-16T20:13:38.072Z,6.20
2018-05-16T20:16:05.578Z,7.17
2018-05-16T20:18:33.114Z,6.23
2018-05-16T20:21:00.627Z,5.80
2018-05-16T20:23:29.052Z,6.23
2018-05-16T20:25:56.596Z,5.90
2018-05-16T20:28:24.103Z,5.13
2018-05-16T20:30:51.653Z,5.53
2018-05-16T20:33:19.944Z,5.13
2018-05-16T20:35:48.245Z,5.07
2018-05-16T20:38:15.773Z,4.70
2018-05-16T20:40:43.267Z,5.30
2018-05-16T20:43:10.790Z,7.33
2018-05-16T20:45:38.289Z,5.37
2018-05-16T20:48:05.813Z,5.40
2018-05-16T20:50:33.310Z,5.60
2018-05-16T20:53:00.813Z,5.90
2018-05-16T20:55:28.338Z,6.73
2018-05-16T20:57:55.830Z,6.07
2018-05-16T21:00:23.422Z,6.70
2018-05-16T21:02:50.938Z,7.37
2018-05-16T21:05:18.526Z,7.57
2018-05-16T21:07:46.003Z,7.90
2018-05-16T21:10:13.585Z,6.55
2018-05-16T21:12:41.113Z,6.70
2018-05-16T21:15:08.859Z,7.50
2018-05-16T21:17:36.390Z,7.00
2018-05-16T21:20:03.894Z,6.75
2018-05-16T21:22:32.172Z,7.27
2018-05-16T21:25:00.469Z,6.43
2018-05-16T21:27:27.979Z,7.47
2018-05-16T21:29:55.509Z,7.77
2018-05-16T21:32:23.005Z,9.20
2018-05-16T21:34:50.503Z,7.70
2018-05-16T21:37:19.705Z,8.27
2018-05-16T21:39:47.976Z,8.50
2018-05-16T21:42:16.274Z,8.93
2018-05-16T21:44:43.799Z,8.37
2018-05-16T21:47:12.088Z,9.77
2018-05-16T21:49:40.387Z,8.00
2018-05-16T21:52:07.891Z,8.32
2018-05-16T21:54:35.452Z,7.67
2018-05-16T21:57:02.955Z,8.93
2018-05-16T21:59:30.494Z,8.47
2018-05-16T22:01:58.786Z,9.07
2018-05-16T22:04:27.067Z,10.40
2018-05-16T22:06:55.374Z,9.00
2018-05-16T22:09:22.927Z,9.33
2018-05-16T22:11:50.453Z,10.97
2018-05-16T22:14:18.061Z,9.70
2018-05-16T22:16:45.580Z,11.10
2018-05-16T22:19:13.857Z,11.23
2018-05-16T22:21:42.138Z,12.77
2018-05-16T22:24:10.430Z,12.00
2018-05-16T22:26:37.942Z,11.57
2018-05-16T22:29:05.463Z,11.27
2018-05-16T22:31:38.658Z,11.20
2018-05-16T22:34:11.898Z,13.40
2018-05-16T22:36:46.022Z,12.23
2018-05-16T22:39:19.314Z,11.00
2018-05-16T22:41:52.555Z,12.50
2018-05-16T22:44:25.832Z,11.97
2018-05-16T22:46:53.329Z,13.47
2018-05-16T22:49:20.853Z,12.17
2018-05-16T22:51:48.357Z,12.70
2018-05-16T22:54:15.862Z,14.07
2018-05-16T22:56:44.142Z,12.53
2018-05-16T22:59:12.414Z,13.50
2018-05-16T23:01:40.717Z,13.20
2018-05-16T23:04:08.233Z,13.67
2018-05-16T23:06:35.760Z,13.10
2018-05-16T23:09:03.254Z,14.13
2018-05-16T23:11:30.793Z,14.20
2018-05-16T23:13:58.298Z,13.03
2018-05-16T23:16:26.558Z,12.87
2018-05-16T23:18:54.852Z,13.67
2018-05-16T23:21:23.112Z,14.50
2018-05-16T23:23:51.402Z,13.20
2018-05-16T23:26:19.673Z,12.30
2018-05-16T23:28:47.958Z,12.93
2018-05-16T23:31:16.222Z,12.90
2018-05-16T23:33:44.501Z,13.57
2018-05-16T23:36:12.775Z,13.10
2018-05-16T23:38:41.043Z,12.87
2018-05-16T23:41:08.567Z,12.60
2018-05-16T23:43:36.065Z,13.00
2018-05-16T23:46:03.587Z,13.53
2018-05-16T23:48:31.090Z,12.70
2018-05-16T23:50:59.378Z,12.40
2018-05-16T23:53:27.648Z,12.90
2018-05-16T23:55:55.185Z,12.50
2018-05-16T23:58:22.682Z,12.60
